Time;durP1;ratioP1;P1;durP2;ratioP2;P2;SDS_P1;SDS_P2;PMS_P1;PMS_P2;Temp;Humidity;BMP_temperature;BMP_pressure;BME280_temperature;BME280_humidity;BME280_pressure;Samples;Min_cycle;Max_cycle;Signal;HPM_P1;HPM_P2
2021/12/06 00:12:43;;;;;;;1.20;1.10;;;23.10;57.70;;;;;;31516158;28;20087;-45
2021/12/06 00:27:45;;;;;;;0.65;0.60;;;23.00;57.90;;;;;;31534694;28;20138;-50
2021/12/06 00:42:47;;;;;;;1.83;0.50;;;22.90;58.20;;;;;;31691593;28;20126;-51
2021/12/06 00:57:52;;;;;;;0.30;0.30;;;22.90;58.30;;;;;;31670464;28;20049;-56
2021/12/06 01:12:56;;;;;;;0.30;0.30;;;22.80;58.40;;;;;;31575749;28;20135;-57
2021/12/06 01:43:06;;;;;;;0.22;0.20;;;23.00;58.60;;;;;;31632052;28;20064;-52
2021/12/06 01:58:08;;;;;;;0.28;0.20;;;23.30;58.60;;;;;;31627429;28;20051;-50
2021/12/06 02:13:11;;;;;;;0.10;0.10;;;23.20;58.30;;;;;;31724437;28;20044;-51
2021/12/06 02:28:13;;;;;;;0.10;0.10;;;23.00;58.50;;;;;;31595431;28;20560;-53
2021/12/06 02:43:15;;;;;;;0.10;0.10;;;22.90;58.50;;;;;;31653117;28;20044;-52
2021/12/06 02:58:43;;;;;;;0.10;0.10;;;22.90;58.50;;;;;;31555147;28;20093;-52
2021/12/06 03:13:44;;;;;;;0.10;0.10;;;22.90;58.60;;;;;;31561033;28;20090;-51
2021/12/06 03:28:47;;;;;;;0.15;0.10;;;23.10;58.90;;;;;;31510483;28;20060;-50
2021/12/06 03:43:50;;;;;;;0.10;0.10;;;23.30;58.80;;;;;;31512132;28;20482;-47
2021/12/06 03:58:52;;;;;;;0.10;0.10;;;23.20;58.70;;;;;;31588404;28;20041;-46
2021/12/06 04:13:54;;;;;;;0.10;0.10;;;23.00;58.90;;;;;;31579297;28;20131;-53
2021/12/06 04:29:00;;;;;;;0.30;0.10;;;22.90;58.90;;;;;;31645041;28;20053;-51
2021/12/06 04:44:03;;;;;;;0.10;0.10;;;22.90;59.00;;;;;;31621824;28;20044;-53
2021/12/06 04:59:24;;;;;;;0.10;0.10;;;22.80;59.10;;;;;;31630378;28;20049;-52
2021/12/06 05:14:27;;;;;;;0.10;0.10;;;23.20;59.40;;;;;;31557885;28;20111;-57
2021/12/06 05:29:30;;;;;;;0.10;0.10;;;23.30;59.10;;;;;;31613293;28;20056;-51
2021/12/06 05:44:33;;;;;;;0.10;0.10;;;23.20;59.20;;;;;;31666316;28;20039;-50
2021/12/06 05:59:35;;;;;;;3.00;1.50;;;23.00;59.50;;;;;;31685347;28;20044;-50
2021/12/06 06:14:37;;;;;;;10.48;3.30;;;22.80;59.70;;;;;;31647145;28;20051;-54
2021/12/06 06:29:39;;;;;;;5.22;1.90;;;22.70;59.80;;;;;;31645316;28;20064;-54
2021/12/06 06:44:41;;;;;;;5.78;2.13;;;23.10;59.80;;;;;;31643787;28;20115;-54
2021/12/06 06:59:45;;;;;;;3.92;1.50;;;23.20;58.90;;;;;;31642369;28;20055;-55
2021/12/06 07:14:48;;;;;;;3.25;1.40;;;23.00;59.10;;;;;;31638666;28;20052;-55
2021/12/06 07:29:50;;;;;;;13.85;9.90;;;22.90;59.30;;;;;;31624523;28;20044;-54
2021/12/06 07:44:52;;;;;;;7.75;4.95;;;22.70;55.60;;;;;;31607286;28;20082;-50
2021/12/06 08:00:01;;;;;;;23.27;17.52;;;22.70;56.40;;;;;;31660813;28;20139;-53
2021/12/06 08:15:04;;;;;;;17.83;14.70;;;22.90;55.10;;;;;;31641357;28;20067;-54
2021/12/06 08:30:07;;;;;;;13.95;11.00;;;22.90;53.40;;;;;;31548082;28;20053;-58
2021/12/06 08:45:10;;;;;;;14.27;11.00;;;22.80;55.20;;;;;;31606083;28;20069;-49
2021/12/06 09:00:17;;;;;;;10.30;8.20;;;22.70;55.00;;;;;;31625724;28;20055;-52
2021/12/06 09:15:21;;;;;;;9.23;7.78;;;22.60;54.20;;;;;;31583597;28;20044;-61
2021/12/06 09:30:27;;;;;;;11.23;7.03;;;22.70;53.70;;;;;;31576757;28;20060;-57
2021/12/06 09:45:31;;;;;;;8.63;6.50;;;23.00;53.80;;;;;;31702297;28;20149;-57
2021/12/06 10:00:41;;;;;;;6.68;5.32;;;23.00;54.10;;;;;;31634650;28;20055;-57
2021/12/06 10:15:44;;;;;;;10.85;8.25;;;22.90;54.70;;;;;;31566015;28;20084;-57
2021/12/06 10:30:56;;;;;;;20.75;13.15;;;22.90;54.80;;;;;;31631892;28;20096;-58
2021/12/06 10:46:00;;;;;;;57.22;44.30;;;22.70;53.10;;;;;;31635179;28;20036;-58
2021/12/06 11:01:06;;;;;;;29.60;22.45;;;22.60;52.50;;;;;;31611309;28;20041;-53
2021/12/06 11:16:16;;;;;;;26.10;21.35;;;22.80;53.10;;;;;;31620818;28;20075;-45
2021/12/06 11:31:18;;;;;;;28.53;19.53;;;23.00;53.40;;;;;;31623987;28;20040;-49
2021/12/06 11:46:32;;;;;;;22.00;17.80;;;23.00;53.40;;;;;;31753828;28;20032;-52
2021/12/06 12:01:44;;;;;;;20.15;16.40;;;22.90;53.80;;;;;;31744435;28;20053;-49
2021/12/06 12:16:46;;;;;;;21.35;15.85;;;22.70;54.00;;;;;;31749121;28;20165;-49
2021/12/06 12:31:49;;;;;;;18.60;15.60;;;22.80;54.00;;;;;;31681714;28;20036;-52
2021/12/06 12:46:53;;;;;;;20.92;13.98;;;23.00;54.20;;;;;;31596731;28;20040;-51
2021/12/06 13:02:27;;;;;;;18.77;13.98;;;23.00;54.00;;;;;;31623066;28;20043;-50
2021/12/06 13:17:48;;;;;;;20.67;12.95;;;22.90;54.40;;;;;;31569751;28;20045;-58
2021/12/06 13:33:02;;;;;;;18.25;13.27;;;22.80;54.80;;;;;;31536116;28;20113;-56
2021/12/06 13:48:39;;;;;;;20.98;12.60;;;22.70;55.80;;;;;;31648743;28;20096;-57
2021/12/06 14:03:43;;;;;;;29.35;11.52;;;23.00;56.40;;;;;;31756992;28;20099;-57
2021/12/06 14:18:45;;;;;;;17.13;10.80;;;23.20;57.20;;;;;;31698860;28;20049;-58
2021/12/06 14:33:47;;;;;;;17.52;9.93;;;23.00;56.90;;;;;;31644794;28;20098;-58
2021/12/06 14:48:51;;;;;;;12.75;9.85;;;22.90;57.00;;;;;;31669009;28;20045;-56
2021/12/06 15:04:05;;;;;;;14.18;9.98;;;22.80;57.20;;;;;;31346621;28;10000757;-52
2021/12/06 15:19:10;;;;;;;14.38;8.88;;;22.80;57.30;;;;;;31691205;28;20622;-51
2021/12/06 15:34:12;;;;;;;13.23;9.43;;;23.10;57.90;;;;;;31641525;28;20096;-61
2021/12/06 15:49:14;;;;;;;14.13;7.93;;;23.20;58.70;;;;;;31624532;28;20059;-63
2021/12/06 16:04:17;;;;;;;13.20;8.10;;;23.10;58.60;;;;;;31647688;28;20044;-59
2021/12/06 16:19:22;;;;;;;27.05;7.80;;;23.10;58.20;;;;;;31708846;28;20075;-57
2021/12/06 16:34:29;;;;;;;15.82;8.00;;;23.00;59.10;;;;;;31667980;28;20044;-56
2021/12/06 16:49:35;;;;;;;13.90;7.75;;;22.90;59.20;;;;;;31702266;28;20048;-55
2021/12/06 17:04:52;;;;;;;12.88;7.68;;;22.90;59.50;;;;;;31660767;28;20052;-49
2021/12/06 17:19:54;;;;;;;15.40;8.05;;;22.70;59.70;;;;;;31620352;28;20052;-46
2021/12/06 17:34:56;;;;;;;9.40;6.47;;;22.70;60.20;;;;;;31572367;28;20068;-58
2021/12/06 17:49:59;;;;;;;10.65;5.70;;;22.70;59.80;;;;;;31624307;28;20047;-52
2021/12/06 18:05:01;;;;;;;10.25;5.75;;;22.90;59.90;;;;;;31219150;28;10000697;-49
2021/12/06 18:20:07;;;;;;;7.38;5.35;;;23.20;59.60;;;;;;31628474;28;20055;-53
2021/12/06 18:35:12;;;;;;;6.78;4.70;;;23.30;60.00;;;;;;31669223;28;20048;-56
2021/12/06 18:50:14;;;;;;;8.98;4.63;;;23.30;60.40;;;;;;31568068;28;20049;-65
2021/12/06 19:05:16;;;;;;;7.70;4.95;;;23.20;60.40;;;;;;31588905;28;20040;-44
2021/12/06 19:20:21;;;;;;;5.72;4.68;;;23.20;60.20;;;;;;31693539;28;20094;-42
2021/12/06 19:35:23;;;;;;;7.90;5.35;;;23.10;60.30;;;;;;31614282;28;20051;-54
2021/12/06 19:50:29;;;;;;;6.82;5.45;;;22.90;60.10;;;;;;31616454;28;20058;-58
2021/12/06 20:05:32;;;;;;;5.90;4.32;;;22.70;60.70;;;;;;31503993;28;20068;-45
2021/12/06 20:20:35;;;;;;;15.02;5.18;;;22.70;60.30;;;;;;31628437;28;20056;-55
2021/12/06 20:35:38;;;;;;;10.10;4.47;;;22.70;60.70;;;;;;31597690;28;20108;-55
2021/12/06 20:50:45;;;;;;;7.07;3.67;;;22.70;61.00;;;;;;31654909;28;20716;-42
2021/12/06 21:05:48;;;;;;;5.43;1.90;;;22.70;60.70;;;;;;31595585;28;20082;-53
2021/12/06 21:20:51;;;;;;;1.80;1.50;;;22.70;60.50;;;;;;31611033;28;20704;-56
2021/12/06 21:35:54;;;;;;;1.67;1.30;;;22.80;60.40;;;;;;31667002;28;20048;-53
2021/12/06 21:51:00;;;;;;;24.52;21.52;;;22.90;60.70;;;;;;31606502;28;20078;-48
2021/12/06 22:06:04;;;;;;;13.05;10.65;;;22.70;60.10;;;;;;31616441;28;20056;-50
2021/12/06 22:21:08;;;;;;;8.15;7.00;;;22.80;60.30;;;;;;31612341;28;20080;-53
2021/12/06 22:36:11;;;;;;;5.30;4.78;;;22.90;60.40;;;;;;31633898;28;20100;-47
2021/12/06 22:51:16;;;;;;;2.90;2.50;;;22.80;60.30;;;;;;31612712;28;20226;-48
2021/12/06 23:06:18;;;;;;;2.00;1.77;;;22.80;60.20;;;;;;31609470;28;20082;-52
2021/12/06 23:21:22;;;;;;;1.25;1.15;;;22.80;60.50;;;;;;31562714;28;20112;-57
2021/12/06 23:36:30;;;;;;;67.38;48.50;;;22.80;60.50;;;;;;31517698;28;20066;-50
2021/12/06 23:51:32;;;;;;;16.83;14.07;;;22.60;60.00;;;;;;31530905;28;20041;-56
